sensor_id;sensor_type;location;lat;lon;timestamp;P1;durP1;ratioP1;P2;durP2;ratioP2
13408;SDS011;6775;49.574;11.170;2022-08-01T00:01:13;3.03;;;2.80;;
13408;SDS011;6775;49.574;11.170;2022-08-01T00:03:41;2.23;;;2.13;;
13408;SDS011;6775;49.574;11.170;2022-08-01T00:06:09;2.83;;;2.63;;
13408;SDS011;6775;49.574;11.170;2022-08-01T00:08:37;3.37;;;2.70;;
13408;SDS011;6775;49.574;11.170;2022-08-01T00:11:05;2.87;;;2.67;;
13408;SDS011;6775;49.574;11.170;2022-08-01T00:13:35;3.27;;;2.97;;
13408;SDS011;6775;49.574;11.170;2022-08-01T00:16:04;2.83;;;2.63;;
13408;SDS011;6775;49.574;11.170;2022-08-01T00:18:32;3.07;;;2.80;;
13408;SDS011;6775;49.574;11.170;2022-08-01T00:21:01;3.57;;;3.10;;
13408;SDS011;6775;49.574;11.170;2022-08-01T00:23:30;3.47;;;3.17;;
13408;SDS011;6775;49.574;11.170;2022-08-01T00:25:58;2.93;;;2.73;;
13408;SDS011;6775;49.574;11.170;2022-08-01T00:28:26;2.80;;;2.60;;
13408;SDS011;6775;49.574;11.170;2022-08-01T00:30:54;3.30;;;3.10;;
13408;SDS011;6775;49.574;11.170;2022-08-01T00:33:24;2.90;;;2.70;;
13408;SDS011;6775;49.574;11.170;2022-08-01T00:35:52;3.47;;;3.17;;
13408;SDS011;6775;49.574;11.170;2022-08-01T00:38:20;2.80;;;2.60;;
13408;SDS011;6775;49.574;11.170;2022-08-01T00:40:48;3.00;;;2.80;;
13408;SDS011;6775;49.574;11.170;2022-08-01T00:43:17;2.73;;;2.53;;
13408;SDS011;6775;49.574;11.170;2022-08-01T00:45:45;3.83;;;3.20;;
13408;SDS011;6775;49.574;11.170;2022-08-01T00:48:13;3.40;;;3.10;;
13408;SDS011;6775;49.574;11.170;2022-08-01T00:50:44;3.63;;;3.43;;
13408;SDS011;6775;49.574;11.170;2022-08-01T00:53:12;3.10;;;2.90;;
13408;SDS011;6775;49.574;11.170;2022-08-01T00:55:44;3.30;;;3.00;;
13408;SDS011;6775;49.574;11.170;2022-08-01T00:58:12;3.63;;;3.33;;
13408;SDS011;6775;49.574;11.170;2022-08-01T01:00:43;3.70;;;3.40;;
13408;SDS011;6775;49.574;11.170;2022-08-01T01:03:20;3.70;;;3.40;;
13408;SDS011;6775;49.574;11.170;2022-08-01T01:06:21;3.60;;;3.30;;
13408;SDS011;6775;49.574;11.170;2022-08-01T01:11:48;3.93;;;3.53;;
13408;SDS011;6775;49.574;11.170;2022-08-01T01:14:27;3.57;;;3.27;;
13408;SDS011;6775;49.574;11.170;2022-08-01T01:17:02;3.77;;;3.47;;
13408;SDS011;6775;49.574;11.170;2022-08-01T01:19:32;3.77;;;3.40;;
13408;SDS011;6775;49.574;11.170;2022-08-01T01:22:17;3.57;;;3.27;;
13408;SDS011;6775;49.574;11.170;2022-08-01T01:24:56;3.87;;;3.50;;
13408;SDS011;6775;49.574;11.170;2022-08-01T01:27:36;3.20;;;3.00;;
13408;SDS011;6775;49.574;11.170;2022-08-01T01:30:13;3.10;;;2.90;;
13408;SDS011;6775;49.574;11.170;2022-08-01T01:32:43;3.70;;;3.40;;
13408;SDS011;6775;49.574;11.170;2022-08-01T01:35:14;3.50;;;3.20;;
13408;SDS011;6775;49.574;11.170;2022-08-01T01:37:47;3.70;;;3.40;;
13408;SDS011;6775;49.574;11.170;2022-08-01T01:40:16;3.13;;;2.93;;
13408;SDS011;6775;49.574;11.170;2022-08-01T01:42:47;3.97;;;3.60;;
13408;SDS011;6775;49.574;11.170;2022-08-01T01:45:17;3.77;;;3.40;;
13408;SDS011;6775;49.574;11.170;2022-08-01T01:47:45;3.60;;;3.30;;
13408;SDS011;6775;49.574;11.170;2022-08-01T01:50:14;3.30;;;3.10;;
13408;SDS011;6775;49.574;11.170;2022-08-01T01:52:43;3.50;;;3.20;;
13408;SDS011;6775;49.574;11.170;2022-08-01T01:55:12;3.77;;;3.47;;
13408;SDS011;6775;49.574;11.170;2022-08-01T01:57:41;3.30;;;3.10;;
13408;SDS011;6775;49.574;11.170;2022-08-01T02:00:11;3.60;;;3.30;;
13408;SDS011;6775;49.574;11.170;2022-08-01T02:02:43;3.77;;;3.50;;
13408;SDS011;6775;49.574;11.170;2022-08-01T02:05:13;3.53;;;3.23;;
13408;SDS011;6775;49.574;11.170;2022-08-01T02:07:42;3.80;;;3.50;;
13408;SDS011;6775;49.574;11.170;2022-08-01T02:10:14;3.80;;;3.50;;
13408;SDS011;6775;49.574;11.170;2022-08-01T02:12:44;4.13;;;3.83;;
13408;SDS011;6775;49.574;11.170;2022-08-01T02:15:16;4.77;;;4.20;;
13408;SDS011;6775;49.574;11.170;2022-08-01T02:17:48;4.63;;;4.27;;
13408;SDS011;6775;49.574;11.170;2022-08-01T02:20:18;4.77;;;4.37;;
13408;SDS011;6775;49.574;11.170;2022-08-01T02:22:46;4.87;;;4.57;;
13408;SDS011;6775;49.574;11.170;2022-08-01T02:25:20;4.93;;;4.47;;
13408;SDS011;6775;49.574;11.170;2022-08-01T02:27:52;4.80;;;4.37;;
13408;SDS011;6775;49.574;11.170;2022-08-01T02:30:26;4.57;;;4.23;;
13408;SDS011;6775;49.574;11.170;2022-08-01T02:33:03;3.93;;;3.63;;
13408;SDS011;6775;49.574;11.170;2022-08-01T02:35:41;4.10;;;3.80;;
13408;SDS011;6775;49.574;11.170;2022-08-01T02:38:31;4.60;;;4.20;;
13408;SDS011;6775;49.574;11.170;2022-08-01T02:41:02;4.20;;;3.90;;
13408;SDS011;6775;49.574;11.170;2022-08-01T02:43:33;4.93;;;4.53;;
13408;SDS011;6775;49.574;11.170;2022-08-01T02:46:06;4.73;;;4.33;;
13408;SDS011;6775;49.574;11.170;2022-08-01T02:48:43;4.70;;;4.27;;
13408;SDS011;6775;49.574;11.170;2022-08-01T02:51:13;4.60;;;4.20;;
13408;SDS011;6775;49.574;11.170;2022-08-01T02:53:43;4.00;;;3.70;;
13408;SDS011;6775;49.574;11.170;2022-08-01T02:56:13;4.50;;;4.20;;
13408;SDS011;6775;49.574;11.170;2022-08-01T02:58:42;4.70;;;4.30;;
13408;SDS011;6775;49.574;11.170;2022-08-01T03:01:11;4.90;;;4.47;;
13408;SDS011;6775;49.574;11.170;2022-08-01T03:03:42;4.60;;;4.30;;
13408;SDS011;6775;49.574;11.170;2022-08-01T03:06:10;4.57;;;4.17;;
13408;SDS011;6775;49.574;11.170;2022-08-01T03:08:39;4.30;;;4.00;;
13408;SDS011;6775;49.574;11.170;2022-08-01T03:11:09;4.30;;;4.00;;
13408;SDS011;6775;49.574;11.170;2022-08-01T03:13:39;4.80;;;4.40;;
13408;SDS011;6775;49.574;11.170;2022-08-01T03:16:09;4.37;;;4.03;;
13408;SDS011;6775;49.574;11.170;2022-08-01T03:18:40;4.83;;;4.43;;
13408;SDS011;6775;49.574;11.170;2022-08-01T03:21:12;4.93;;;4.53;;
13408;SDS011;6775;49.574;11.170;2022-08-01T03:23:41;4.80;;;4.40;;
13408;SDS011;6775;49.574;11.170;2022-08-01T03:26:10;4.33;;;4.03;;
13408;SDS011;6775;49.574;11.170;2022-08-01T03:28:39;4.13;;;3.83;;
13408;SDS011;6775;49.574;11.170;2022-08-01T03:31:08;4.57;;;4.17;;
13408;SDS011;6775;49.574;11.170;2022-08-01T03:33:37;4.63;;;4.30;;
13408;SDS011;6775;49.574;11.170;2022-08-01T03:36:07;4.40;;;4.00;;
13408;SDS011;6775;49.574;11.170;2022-08-01T03:38:37;5.07;;;4.67;;
13408;SDS011;6775;49.574;11.170;2022-08-01T03:41:08;4.20;;;3.90;;
13408;SDS011;6775;49.574;11.170;2022-08-01T03:43:40;4.10;;;3.80;;
13408;SDS011;6775;49.574;11.170;2022-08-01T03:46:13;4.03;;;3.73;;
13408;SDS011;6775;49.574;11.170;2022-08-01T03:48:47;4.80;;;4.40;;
13408;SDS011;6775;49.574;11.170;2022-08-01T03:51:17;4.83;;;4.47;;
13408;SDS011;6775;49.574;11.170;2022-08-01T03:53:46;4.63;;;4.23;;
13408;SDS011;6775;49.574;11.170;2022-08-01T03:56:16;4.77;;;4.37;;
13408;SDS011;6775;49.574;11.170;2022-08-01T03:58:46;5.30;;;4.73;;
13408;SDS011;6775;49.574;11.170;2022-08-01T04:01:15;5.23;;;4.83;;
13408;SDS011;6775;49.574;11.170;2022-08-01T04:03:45;5.33;;;4.93;;
13408;SDS011;6775;49.574;11.170;2022-08-01T04:06:13;4.50;;;4.10;;
13408;SDS011;6775;49.574;11.170;2022-08-01T04:08:42;5.07;;;4.67;;
13408;SDS011;6775;49.574;11.170;2022-08-01T04:11:21;5.60;;;5.00;;
13408;SDS011;6775;49.574;11.170;2022-08-01T04:13:51;5.37;;;4.97;;
13408;SDS011;6775;49.574;11.170;2022-08-01T04:16:20;5.43;;;4.93;;
13408;SDS011;6775;49.574;11.170;2022-08-01T04:18:48;5.60;;;5.10;;
13408;SDS011;6775;49.574;11.170;2022-08-01T04:21:17;6.37;;;5.20;;
13408;SDS011;6775;49.574;11.170;2022-08-01T04:23:49;5.13;;;4.73;;
13408;SDS011;6775;49.574;11.170;2022-08-01T04:26:19;5.40;;;4.90;;
13408;SDS011;6775;49.574;11.170;2022-08-01T04:28:49;7.13;;;5.30;;
13408;SDS011;6775;49.574;11.170;2022-08-01T04:31:20;5.03;;;4.53;;
13408;SDS011;6775;49.574;11.170;2022-08-01T04:33:52;5.73;;;4.67;;
13408;SDS011;6775;49.574;11.170;2022-08-01T04:36:22;6.30;;;5.20;;
13408;SDS011;6775;49.574;11.170;2022-08-01T04:38:54;5.57;;;4.90;;
13408;SDS011;6775;49.574;11.170;2022-08-01T04:41:25;5.27;;;4.83;;
13408;SDS011;6775;49.574;11.170;2022-08-01T04:43:53;5.47;;;4.90;;
13408;SDS011;6775;49.574;11.170;2022-08-01T04:46:21;4.97;;;4.57;;
13408;SDS011;6775;49.574;11.170;2022-08-01T04:48:50;4.73;;;4.40;;
13408;SDS011;6775;49.574;11.170;2022-08-01T04:51:18;4.73;;;4.00;;
13408;SDS011;6775;49.574;11.170;2022-08-01T04:53:48;3.87;;;3.57;;
13408;SDS011;6775;49.574;11.170;2022-08-01T04:56:19;3.90;;;3.60;;
13408;SDS011;6775;49.574;11.170;2022-08-01T04:58:47;3.73;;;3.43;;
13408;SDS011;6775;49.574;11.170;2022-08-01T05:01:47;3.77;;;3.47;;
13408;SDS011;6775;49.574;11.170;2022-08-01T05:04:16;3.33;;;3.07;;
13408;SDS011;6775;49.574;11.170;2022-08-01T05:06:44;3.10;;;2.90;;
13408;SDS011;6775;49.574;11.170;2022-08-01T05:09:12;3.27;;;3.00;;
13408;SDS011;6775;49.574;11.170;2022-08-01T05:11:41;2.93;;;2.73;;
13408;SDS011;6775;49.574;11.170;2022-08-01T05:14:09;2.50;;;2.30;;
13408;SDS011;6775;49.574;11.170;2022-08-01T05:16:37;2.60;;;2.40;;
13408;SDS011;6775;49.574;11.170;2022-08-01T05:19:05;2.60;;;2.50;;
13408;SDS011;6775;49.574;11.170;2022-08-01T05:21:34;2.83;;;2.63;;
13408;SDS011;6775;49.574;11.170;2022-08-01T05:24:02;2.60;;;2.40;;
13408;SDS011;6775;49.574;11.170;2022-08-01T05:26:30;2.70;;;2.50;;
13408;SDS011;6775;49.574;11.170;2022-08-01T05:29:02;2.30;;;2.20;;
13408;SDS011;6775;49.574;11.170;2022-08-01T05:31:30;2.60;;;2.40;;
13408;SDS011;6775;49.574;11.170;2022-08-01T05:34:00;2.47;;;2.30;;
13408;SDS011;6775;49.574;11.170;2022-08-01T05:36:28;2.20;;;2.10;;
13408;SDS011;6775;49.574;11.170;2022-08-01T05:38:56;2.50;;;2.30;;
13408;SDS011;6775;49.574;11.170;2022-08-01T05:41:24;2.10;;;2.00;;
13408;SDS011;6775;49.574;11.170;2022-08-01T05:43:52;2.20;;;2.00;;
13408;SDS011;6775;49.574;11.170;2022-08-01T05:46:21;2.07;;;1.97;;
13408;SDS011;6775;49.574;11.170;2022-08-01T05:48:52;2.23;;;2.13;;
13408;SDS011;6775;49.574;11.170;2022-08-01T05:51:21;2.00;;;1.90;;
13408;SDS011;6775;49.574;11.170;2022-08-01T05:53:48;1.87;;;1.77;;
13408;SDS011;6775;49.574;11.170;2022-08-01T05:56:16;1.90;;;1.80;;
13408;SDS011;6775;49.574;11.170;2022-08-01T05:58:44;2.37;;;2.17;;
13408;SDS011;6775;49.574;11.170;2022-08-01T06:01:12;2.30;;;2.10;;
13408;SDS011;6775;49.574;11.170;2022-08-01T06:03:41;2.23;;;2.03;;
13408;SDS011;6775;49.574;11.170;2022-08-01T06:06:09;1.80;;;1.70;;
13408;SDS011;6775;49.574;11.170;2022-08-01T06:08:37;2.40;;;2.03;;
13408;SDS011;6775;49.574;11.170;2022-08-01T06:11:05;1.80;;;1.70;;
13408;SDS011;6775;49.574;11.170;2022-08-01T06:13:33;1.93;;;1.83;;
13408;SDS011;6775;49.574;11.170;2022-08-01T06:16:14;1.93;;;1.83;;
13408;SDS011;6775;49.574;11.170;2022-08-01T06:18:43;1.90;;;1.80;;
13408;SDS011;6775;49.574;11.170;2022-08-01T06:21:11;2.07;;;1.97;;
13408;SDS011;6775;49.574;11.170;2022-08-01T06:23:39;2.00;;;1.90;;
13408;SDS011;6775;49.574;11.170;2022-08-01T06:26:08;2.20;;;2.07;;
13408;SDS011;6775;49.574;11.170;2022-08-01T06:28:36;1.87;;;1.77;;
13408;SDS011;6775;49.574;11.170;2022-08-01T06:31:04;1.80;;;1.70;;
13408;SDS011;6775;49.574;11.170;2022-08-01T06:33:32;3.40;;;2.20;;
13408;SDS011;6775;49.574;11.170;2022-08-01T06:36:01;2.10;;;1.90;;
13408;SDS011;6775;49.574;11.170;2022-08-01T06:38:29;1.80;;;1.70;;
13408;SDS011;6775;49.574;11.170;2022-08-01T06:40:57;1.80;;;1.70;;
13408;SDS011;6775;49.574;11.170;2022-08-01T06:43:25;1.97;;;1.87;;
13408;SDS011;6775;49.574;11.170;2022-08-01T06:45:53;2.07;;;1.97;;
13408;SDS011;6775;49.574;11.170;2022-08-01T06:48:21;2.10;;;2.00;;
13408;SDS011;6775;49.574;11.170;2022-08-01T06:50:49;1.90;;;1.80;;
13408;SDS011;6775;49.574;11.170;2022-08-01T06:53:35;1.80;;;1.70;;
13408;SDS011;6775;49.574;11.170;2022-08-01T06:56:04;2.30;;;2.03;;
13408;SDS011;6775;49.574;11.170;2022-08-01T06:58:32;2.20;;;2.10;;
13408;SDS011;6775;49.574;11.170;2022-08-01T07:01:01;2.40;;;2.20;;
13408;SDS011;6775;49.574;11.170;2022-08-01T07:03:32;2.17;;;2.00;;
13408;SDS011;6775;49.574;11.170;2022-08-01T07:06:20;2.10;;;1.90;;
13408;SDS011;6775;49.574;11.170;2022-08-01T07:08:50;1.83;;;1.73;;
13408;SDS011;6775;49.574;11.170;2022-08-01T07:11:18;1.80;;;1.70;;
13408;SDS011;6775;49.574;11.170;2022-08-01T07:13:46;2.20;;;2.10;;
13408;SDS011;6775;49.574;11.170;2022-08-01T07:16:14;1.90;;;1.80;;
13408;SDS011;6775;49.574;11.170;2022-08-01T07:18:42;1.60;;;1.50;;
13408;SDS011;6775;49.574;11.170;2022-08-01T07:21:10;2.10;;;1.90;;
13408;SDS011;6775;49.574;11.170;2022-08-01T07:24:00;1.80;;;1.70;;
13408;SDS011;6775;49.574;11.170;2022-08-01T07:26:38;1.83;;;1.70;;
13408;SDS011;6775;49.574;11.170;2022-08-01T07:29:18;1.93;;;1.83;;
13408;SDS011;6775;49.574;11.170;2022-08-01T07:31:45;1.97;;;1.80;;
13408;SDS011;6775;49.574;11.170;2022-08-01T07:34:13;1.80;;;1.70;;
13408;SDS011;6775;49.574;11.170;2022-08-01T07:36:42;1.80;;;1.70;;
13408;SDS011;6775;49.574;11.170;2022-08-01T07:39:11;1.90;;;1.80;;
13408;SDS011;6775;49.574;11.170;2022-08-01T07:41:39;2.20;;;2.00;;
13408;SDS011;6775;49.574;11.170;2022-08-01T07:44:26;2.00;;;1.90;;
13408;SDS011;6775;49.574;11.170;2022-08-01T07:46:54;1.83;;;1.73;;
13408;SDS011;6775;49.574;11.170;2022-08-01T07:49:22;1.60;;;1.50;;
13408;SDS011;6775;49.574;11.170;2022-08-01T07:51:50;1.47;;;1.37;;
13408;SDS011;6775;49.574;11.170;2022-08-01T07:54:39;1.60;;;1.50;;
13408;SDS011;6775;49.574;11.170;2022-08-01T07:57:07;1.60;;;1.50;;
13408;SDS011;6775;49.574;11.170;2022-08-01T07:59:35;1.67;;;1.57;;
13408;SDS011;6775;49.574;11.170;2022-08-01T08:02:03;1.43;;;1.33;;
13408;SDS011;6775;49.574;11.170;2022-08-01T08:04:31;1.57;;;1.47;;
13408;SDS011;6775;49.574;11.170;2022-08-01T08:06:59;2.23;;;1.43;;
13408;SDS011;6775;49.574;11.170;2022-08-01T08:09:27;1.77;;;1.67;;
13408;SDS011;6775;49.574;11.170;2022-08-01T08:12:04;1.77;;;1.67;;
13408;SDS011;6775;49.574;11.170;2022-08-01T08:14:33;1.70;;;1.60;;
13408;SDS011;6775;49.574;11.170;2022-08-01T08:17:01;1.60;;;1.50;;
13408;SDS011;6775;49.574;11.170;2022-08-01T08:19:29;1.83;;;1.70;;
13408;SDS011;6775;49.574;11.170;2022-08-01T08:22:03;1.70;;;1.60;;
13408;SDS011;6775;49.574;11.170;2022-08-01T08:24:32;1.73;;;1.63;;
13408;SDS011;6775;49.574;11.170;2022-08-01T08:27:00;2.00;;;1.90;;
13408;SDS011;6775;49.574;11.170;2022-08-01T08:29:31;2.30;;;1.83;;
13408;SDS011;6775;49.574;11.170;2022-08-01T08:32:00;1.57;;;1.47;;
13408;SDS011;6775;49.574;11.170;2022-08-01T08:34:28;1.70;;;1.60;;
13408;SDS011;6775;49.574;11.170;2022-08-01T08:36:57;1.93;;;1.67;;
13408;SDS011;6775;49.574;11.170;2022-08-01T08:39:26;1.80;;;1.70;;
13408;SDS011;6775;49.574;11.170;2022-08-01T08:41:56;1.60;;;1.50;;
13408;SDS011;6775;49.574;11.170;2022-08-01T08:44:28;1.63;;;1.53;;
13408;SDS011;6775;49.574;11.170;2022-08-01T08:46:57;1.70;;;1.60;;
13408;SDS011;6775;49.574;11.170;2022-08-01T08:49:28;1.70;;;1.60;;
13408;SDS011;6775;49.574;11.170;2022-08-01T08:52:02;1.50;;;1.40;;
13408;SDS011;6775;49.574;11.170;2022-08-01T08:54:34;1.83;;;1.50;;
13408;SDS011;6775;49.574;11.170;2022-08-01T08:57:04;1.70;;;1.60;;
13408;SDS011;6775;49.574;11.170;2022-08-01T08:59:33;1.87;;;1.77;;
13408;SDS011;6775;49.574;11.170;2022-08-01T09:02:02;1.63;;;1.50;;
13408;SDS011;6775;49.574;11.170;2022-08-01T09:04:33;1.50;;;1.40;;
13408;SDS011;6775;49.574;11.170;2022-08-01T09:07:04;1.70;;;1.60;;
13408;SDS011;6775;49.574;11.170;2022-08-01T09:09:32;1.77;;;1.67;;
13408;SDS011;6775;49.574;11.170;2022-08-01T09:12:06;1.80;;;1.70;;
13408;SDS011;6775;49.574;11.170;2022-08-01T09:14:34;1.87;;;1.77;;
13408;SDS011;6775;49.574;11.170;2022-08-01T09:17:13;1.70;;;1.60;;
13408;SDS011;6775;49.574;11.170;2022-08-01T09:19:42;1.70;;;1.60;;
13408;SDS011;6775;49.574;11.170;2022-08-01T09:22:14;1.67;;;1.57;;
13408;SDS011;6775;49.574;11.170;2022-08-01T09:24:56;1.83;;;1.50;;
13408;SDS011;6775;49.574;11.170;2022-08-01T09:27:25;1.50;;;1.40;;
13408;SDS011;6775;49.574;11.170;2022-08-01T09:29:53;1.47;;;1.37;;
13408;SDS011;6775;49.574;11.170;2022-08-01T09:32:29;1.57;;;1.47;;
13408;SDS011;6775;49.574;11.170;2022-08-01T09:38:11;1.63;;;1.53;;
13408;SDS011;6775;49.574;11.170;2022-08-01T09:40:44;1.30;;;1.20;;
13408;SDS011;6775;49.574;11.170;2022-08-01T09:43:17;1.30;;;1.30;;
13408;SDS011;6775;49.574;11.170;2022-08-01T09:45:46;0.90;;;0.90;;
13408;SDS011;6775;49.574;11.170;2022-08-01T09:48:19;1.37;;;1.30;;
13408;SDS011;6775;49.574;11.170;2022-08-01T09:50:54;1.30;;;1.20;;
13408;SDS011;6775;49.574;11.170;2022-08-01T09:53:41;1.20;;;1.20;;
13408;SDS011;6775;49.574;11.170;2022-08-01T09:56:18;1.20;;;1.10;;
13408;SDS011;6775;49.574;11.170;2022-08-01T09:58:51;1.60;;;1.10;;
13408;SDS011;6775;49.574;11.170;2022-08-01T10:01:26;1.20;;;1.10;;
13408;SDS011;6775;49.574;11.170;2022-08-01T10:04:09;1.27;;;0.90;;
13408;SDS011;6775;49.574;11.170;2022-08-01T10:06:38;0.97;;;0.97;;
13408;SDS011;6775;49.574;11.170;2022-08-01T10:09:08;1.00;;;1.00;;
13408;SDS011;6775;49.574;11.170;2022-08-01T10:11:39;1.10;;;1.00;;
13408;SDS011;6775;49.574;11.170;2022-08-01T10:14:10;1.10;;;1.00;;
13408;SDS011;6775;49.574;11.170;2022-08-01T10:16:43;1.20;;;1.10;;
13408;SDS011;6775;49.574;11.170;2022-08-01T10:19:32;1.30;;;1.20;;
13408;SDS011;6775;49.574;11.170;2022-08-01T10:22:01;1.07;;;1.00;;
13408;SDS011;6775;49.574;11.170;2022-08-01T10:24:34;1.00;;;0.90;;
13408;SDS011;6775;49.574;11.170;2022-08-01T10:27:05;1.00;;;1.00;;
13408;SDS011;6775;49.574;11.170;2022-08-01T10:29:41;1.00;;;1.00;;
13408;SDS011;6775;49.574;11.170;2022-08-01T10:32:30;1.40;;;0.90;;
13408;SDS011;6775;49.574;11.170;2022-08-01T10:34:59;1.17;;;1.07;;
13408;SDS011;6775;49.574;11.170;2022-08-01T10:37:32;1.00;;;1.00;;
13408;SDS011;6775;49.574;11.170;2022-08-01T10:40:17;1.10;;;1.00;;
13408;SDS011;6775;49.574;11.170;2022-08-01T10:42:56;1.00;;;0.97;;
13408;SDS011;6775;49.574;11.170;2022-08-01T10:45:25;1.17;;;1.07;;
13408;SDS011;6775;49.574;11.170;2022-08-01T10:47:57;0.90;;;0.90;;
13408;SDS011;6775;49.574;11.170;2022-08-01T10:50:34;1.20;;;1.10;;
13408;SDS011;6775;49.574;11.170;2022-08-01T10:53:06;1.90;;;1.23;;
13408;SDS011;6775;49.574;11.170;2022-08-01T10:55:46;2.40;;;1.20;;
13408;SDS011;6775;49.574;11.170;2022-08-01T10:58:22;1.50;;;1.17;;
13408;SDS011;6775;49.574;11.170;2022-08-01T11:03:41;1.07;;;1.00;;
13408;SDS011;6775;49.574;11.170;2022-08-01T11:06:37;1.00;;;1.00;;
13408;SDS011;6775;49.574;11.170;2022-08-01T11:09:19;1.23;;;1.13;;
13408;SDS011;6775;49.574;11.170;2022-08-01T11:12:03;1.10;;;1.00;;
13408;SDS011;6775;49.574;11.170;2022-08-01T11:17:56;1.13;;;1.13;;
13408;SDS011;6775;49.574;11.170;2022-08-01T11:20:30;1.07;;;1.07;;
13408;SDS011;6775;49.574;11.170;2022-08-01T11:23:18;1.10;;;1.00;;
13408;SDS011;6775;49.574;11.170;2022-08-01T11:26:07;1.00;;;1.00;;
13408;SDS011;6775;49.574;11.170;2022-08-01T11:28:43;0.90;;;0.90;;
13408;SDS011;6775;49.574;11.170;2022-08-01T11:31:32;0.80;;;0.80;;
13408;SDS011;6775;49.574;11.170;2022-08-01T11:34:03;1.37;;;1.20;;
13408;SDS011;6775;49.574;11.170;2022-08-01T11:36:31;1.03;;;0.90;;
13408;SDS011;6775;49.574;11.170;2022-08-01T11:39:20;1.20;;;1.20;;
13408;SDS011;6775;49.574;11.170;2022-08-01T11:41:49;1.10;;;1.10;;
13408;SDS011;6775;49.574;11.170;2022-08-01T11:44:19;1.10;;;1.10;;
13408;SDS011;6775;49.574;11.170;2022-08-01T11:46:52;1.07;;;1.07;;
13408;SDS011;6775;49.574;11.170;2022-08-01T11:52:16;1.20;;;1.20;;
13408;SDS011;6775;49.574;11.170;2022-08-01T11:54:49;1.20;;;1.20;;
13408;SDS011;6775;49.574;11.170;2022-08-01T11:57:19;1.10;;;1.10;;
13408;SDS011;6775;49.574;11.170;2022-08-01T12:00:00;1.13;;;1.13;;
13408;SDS011;6775;49.574;11.170;2022-08-01T12:02:34;2.13;;;1.50;;
13408;SDS011;6775;49.574;11.170;2022-08-01T12:05:03;1.57;;;1.47;;
13408;SDS011;6775;49.574;11.170;2022-08-01T12:07:37;1.70;;;1.60;;
13408;SDS011;6775;49.574;11.170;2022-08-01T12:10:08;1.97;;;1.67;;
13408;SDS011;6775;49.574;11.170;2022-08-01T12:12:44;1.97;;;1.87;;
13408;SDS011;6775;49.574;11.170;2022-08-01T12:15:13;1.67;;;1.57;;
13408;SDS011;6775;49.574;11.170;2022-08-01T12:17:42;1.70;;;1.60;;
13408;SDS011;6775;49.574;11.170;2022-08-01T12:20:24;1.97;;;1.80;;
13408;SDS011;6775;49.574;11.170;2022-08-01T12:22:57;1.80;;;1.70;;
13408;SDS011;6775;49.574;11.170;2022-08-01T12:25:28;1.80;;;1.70;;
13408;SDS011;6775;49.574;11.170;2022-08-01T12:27:59;1.60;;;1.50;;
13408;SDS011;6775;49.574;11.170;2022-08-01T12:30:28;1.87;;;1.70;;
13408;SDS011;6775;49.574;11.170;2022-08-01T12:32:57;1.60;;;1.50;;
13408;SDS011;6775;49.574;11.170;2022-08-01T12:35:26;1.90;;;1.80;;
13408;SDS011;6775;49.574;11.170;2022-08-01T12:37:55;1.80;;;1.70;;
13408;SDS011;6775;49.574;11.170;2022-08-01T12:40:26;1.97;;;1.80;;
13408;SDS011;6775;49.574;11.170;2022-08-01T12:42:56;1.80;;;1.70;;
13408;SDS011;6775;49.574;11.170;2022-08-01T12:45:26;1.33;;;1.23;;
13408;SDS011;6775;49.574;11.170;2022-08-01T12:47:56;1.63;;;1.53;;
13408;SDS011;6775;49.574;11.170;2022-08-01T12:50:27;1.73;;;1.63;;
13408;SDS011;6775;49.574;11.170;2022-08-01T12:52:57;1.33;;;1.33;;
13408;SDS011;6775;49.574;11.170;2022-08-01T12:55:26;1.70;;;1.60;;
13408;SDS011;6775;49.574;11.170;2022-08-01T12:58:03;1.63;;;1.53;;
13408;SDS011;6775;49.574;11.170;2022-08-01T13:00:32;1.70;;;1.60;;
13408;SDS011;6775;49.574;11.170;2022-08-01T13:03:02;1.60;;;1.50;;
13408;SDS011;6775;49.574;11.170;2022-08-01T13:05:40;1.53;;;1.43;;
13408;SDS011;6775;49.574;11.170;2022-08-01T13:08:10;1.23;;;1.13;;
13408;SDS011;6775;49.574;11.170;2022-08-01T13:10:41;1.40;;;1.30;;
13408;SDS011;6775;49.574;11.170;2022-08-01T13:13:09;1.40;;;1.40;;
13408;SDS011;6775;49.574;11.170;2022-08-01T13:16:02;1.33;;;1.23;;
13408;SDS011;6775;49.574;11.170;2022-08-01T13:18:34;1.40;;;1.30;;
13408;SDS011;6775;49.574;11.170;2022-08-01T13:21:09;1.30;;;1.20;;
13408;SDS011;6775;49.574;11.170;2022-08-01T13:23:38;1.60;;;1.50;;
13408;SDS011;6775;49.574;11.170;2022-08-01T13:26:40;1.33;;;1.23;;
13408;SDS011;6775;49.574;11.170;2022-08-01T13:29:10;1.37;;;1.27;;
13408;SDS011;6775;49.574;11.170;2022-08-01T13:31:40;1.50;;;1.40;;
13408;SDS011;6775;49.574;11.170;2022-08-01T13:34:08;1.30;;;1.30;;
13408;SDS011;6775;49.574;11.170;2022-08-01T13:36:37;1.60;;;1.50;;
13408;SDS011;6775;49.574;11.170;2022-08-01T13:39:12;1.50;;;1.40;;
13408;SDS011;6775;49.574;11.170;2022-08-01T13:41:59;1.20;;;1.10;;
13408;SDS011;6775;49.574;11.170;2022-08-01T13:44:27;1.80;;;1.70;;
13408;SDS011;6775;49.574;11.170;2022-08-01T13:46:54;1.57;;;1.47;;
13408;SDS011;6775;49.574;11.170;2022-08-01T13:49:22;1.40;;;1.30;;
13408;SDS011;6775;49.574;11.170;2022-08-01T13:52:03;1.30;;;1.20;;
13408;SDS011;6775;49.574;11.170;2022-08-01T13:54:33;1.20;;;1.20;;
13408;SDS011;6775;49.574;11.170;2022-08-01T13:57:03;1.20;;;1.10;;
13408;SDS011;6775;49.574;11.170;2022-08-01T13:59:31;1.10;;;1.10;;
13408;SDS011;6775;49.574;11.170;2022-08-01T14:01:59;1.13;;;1.10;;
13408;SDS011;6775;49.574;11.170;2022-08-01T14:04:27;1.10;;;1.10;;
13408;SDS011;6775;49.574;11.170;2022-08-01T14:06:55;1.27;;;1.17;;
13408;SDS011;6775;49.574;11.170;2022-08-01T14:09:24;1.00;;;1.00;;
13408;SDS011;6775;49.574;11.170;2022-08-01T14:11:57;2.17;;;1.23;;
13408;SDS011;6775;49.574;11.170;2022-08-01T14:14:27;1.40;;;1.30;;
13408;SDS011;6775;49.574;11.170;2022-08-01T14:16:55;1.30;;;1.20;;
13408;SDS011;6775;49.574;11.170;2022-08-01T14:19:22;1.23;;;1.17;;
13408;SDS011;6775;49.574;11.170;2022-08-01T14:22:04;1.30;;;1.20;;
13408;SDS011;6775;49.574;11.170;2022-08-01T14:24:33;1.20;;;1.10;;
13408;SDS011;6775;49.574;11.170;2022-08-01T14:27:04;1.00;;;1.00;;
13408;SDS011;6775;49.574;11.170;2022-08-01T14:29:33;1.10;;;1.03;;
13408;SDS011;6775;49.574;11.170;2022-08-01T14:32:21;0.93;;;0.93;;
13408;SDS011;6775;49.574;11.170;2022-08-01T14:34:54;1.07;;;1.07;;
13408;SDS011;6775;49.574;11.170;2022-08-01T14:37:22;1.17;;;1.10;;
13408;SDS011;6775;49.574;11.170;2022-08-01T14:39:56;1.10;;;1.10;;
13408;SDS011;6775;49.574;11.170;2022-08-01T14:42:24;1.50;;;1.40;;
13408;SDS011;6775;49.574;11.170;2022-08-01T14:44:53;1.10;;;1.10;;
13408;SDS011;6775;49.574;11.170;2022-08-01T14:47:21;1.20;;;1.20;;
13408;SDS011;6775;49.574;11.170;2022-08-01T14:49:49;1.40;;;1.30;;
13408;SDS011;6775;49.574;11.170;2022-08-01T14:52:17;1.23;;;1.20;;
13408;SDS011;6775;49.574;11.170;2022-08-01T14:54:46;1.40;;;1.30;;
13408;SDS011;6775;49.574;11.170;2022-08-01T14:57:14;1.50;;;1.40;;
13408;SDS011;6775;49.574;11.170;2022-08-01T14:59:44;1.60;;;1.50;;
13408;SDS011;6775;49.574;11.170;2022-08-01T15:02:13;2.30;;;1.90;;
13408;SDS011;6775;49.574;11.170;2022-08-01T15:04:43;1.60;;;1.50;;
13408;SDS011;6775;49.574;11.170;2022-08-01T15:07:11;1.60;;;1.50;;
13408;SDS011;6775;49.574;11.170;2022-08-01T15:09:39;1.60;;;1.50;;
13408;SDS011;6775;49.574;11.170;2022-08-01T15:12:07;1.77;;;1.60;;
13408;SDS011;6775;49.574;11.170;2022-08-01T15:14:36;1.70;;;1.60;;
13408;SDS011;6775;49.574;11.170;2022-08-01T15:17:18;1.57;;;1.47;;
13408;SDS011;6775;49.574;11.170;2022-08-01T15:19:49;1.60;;;1.50;;
13408;SDS011;6775;49.574;11.170;2022-08-01T15:22:18;1.60;;;1.50;;
13408;SDS011;6775;49.574;11.170;2022-08-01T15:24:48;1.90;;;1.50;;
13408;SDS011;6775;49.574;11.170;2022-08-01T15:27:22;1.60;;;1.50;;
13408;SDS011;6775;49.574;11.170;2022-08-01T15:29:51;1.77;;;1.67;;